createdAt,value
2022-12-08T00:00:42.533Z,62.95
2022-12-08T00:03:09.335Z,64.97
2022-12-08T00:13:29.147Z,51.90
2022-12-08T00:16:00.092Z,52.63
2022-12-08T00:23:21.472Z,59.72
2022-12-08T00:25:48.037Z,51.63
2022-12-08T00:28:14.795Z,57.55
2022-12-08T00:30:42.007Z,68.80
2022-12-08T00:33:09.273Z,54.72
2022-12-08T00:35:41.556Z,49.95
2022-12-08T00:38:09.699Z,47.58
2022-12-08T00:40:36.486Z,49.65
2022-12-08T00:43:03.210Z,50.58
2022-12-08T00:45:29.922Z,53.05
2022-12-08T00:47:56.681Z,47.65
2022-12-08T00:50:23.322Z,45.78
2022-12-08T00:52:49.977Z,50.90
2022-12-08T01:00:07.832Z,51.22
2022-12-08T01:02:35.388Z,49.20
2022-12-08T01:05:02.050Z,55.40
2022-12-08T01:07:28.674Z,57.42
2022-12-08T01:12:20.817Z,60.17
2022-12-08T01:14:47.501Z,63.03
2022-12-08T01:17:14.242Z,63.17
2022-12-08T01:19:40.962Z,67.00
2022-12-08T01:22:08.577Z,63.78
2022-12-08T01:27:00.719Z,68.50
2022-12-08T01:29:27.975Z,67.90
2022-12-08T01:36:45.525Z,63.17
2022-12-08T01:39:16.234Z,59.92
2022-12-08T01:41:43.906Z,63.28
2022-12-08T01:44:13.305Z,61.33
2022-12-08T01:46:41.018Z,68.35
2022-12-08T01:49:13.916Z,74.55
2022-12-08T01:51:57.035Z,72.28
2022-12-08T01:54:25.740Z,68.72
2022-12-08T01:56:56.632Z,68.32
2022-12-08T01:59:24.411Z,72.55
2022-12-08T02:01:51.640Z,67.82
2022-12-08T02:06:44.937Z,64.95
2022-12-08T02:09:11.992Z,77.55
2022-12-08T02:16:50.345Z,62.33
2022-12-08T02:19:35.595Z,63.92
2022-12-08T02:22:10.777Z,60.00
2022-12-08T02:24:40.309Z,63.15
2022-12-08T02:27:25.378Z,62.17
2022-12-08T02:30:07.692Z,62.60
2022-12-08T02:35:06.598Z,64.30
2022-12-08T02:37:35.222Z,61.85
2022-12-08T02:40:14.037Z,57.65
2022-12-08T02:42:45.157Z,57.88
2022-12-08T02:45:24.742Z,56.92
2022-12-08T02:47:52.151Z,59.45
2022-12-08T02:50:19.078Z,61.13
2022-12-08T02:52:46.924Z,61.63
2022-12-08T02:57:51.937Z,59.75
2022-12-08T03:00:20.241Z,57.20
2022-12-08T03:02:56.803Z,57.35
2022-12-08T03:05:30.227Z,48.47
2022-12-08T03:10:39.853Z,49.78
2022-12-08T03:13:11.796Z,57.72
2022-12-08T03:15:38.990Z,55.95
2022-12-08T03:18:06.885Z,51.17
2022-12-08T03:20:34.632Z,52.67
2022-12-08T03:23:03.076Z,51.38
2022-12-08T03:27:57.991Z,53.30
2022-12-08T03:30:24.749Z,57.72
2022-12-08T03:33:11.674Z,49.25
2022-12-08T03:35:39.414Z,48.15
2022-12-08T03:38:07.776Z,50.05
2022-12-08T03:42:59.912Z,52.20
2022-12-08T03:45:26.654Z,48.60
2022-12-08T03:47:53.321Z,49.58
2022-12-08T03:50:20.074Z,47.13
2022-12-08T03:52:46.668Z,54.60
2022-12-08T03:55:13.494Z,46.58
2022-12-08T04:00:06.853Z,47.83
2022-12-08T04:02:33.781Z,45.88
2022-12-08T04:07:25.990Z,44.25
2022-12-08T04:09:52.804Z,44.55
2022-12-08T04:14:44.891Z,42.17
2022-12-08T04:17:11.589Z,44.33
2022-12-08T04:19:38.308Z,37.10
2022-12-08T04:29:21.378Z,38.75
2022-12-08T04:31:48.077Z,37.67
2022-12-08T04:36:40.190Z,36.25
2022-12-08T04:39:07.090Z,37.28
2022-12-08T04:41:33.786Z,30.20
2022-12-08T04:44:00.399Z,33.13
2022-12-08T04:46:27.134Z,30.67
2022-12-08T04:48:53.873Z,33.58
2022-12-08T04:56:13.531Z,28.25
2022-12-08T04:58:40.286Z,27.38
2022-12-08T05:01:07.209Z,31.67
2022-12-08T05:03:33.926Z,31.45
2022-12-08T05:06:01.224Z,27.80
2022-12-08T05:08:30.781Z,31.10
2022-12-08T05:16:05.455Z,30.48
2022-12-08T05:18:32.191Z,24.42
2022-12-08T05:20:59.228Z,26.52
2022-12-08T05:40:47.366Z,31.15
2022-12-08T05:43:14.041Z,32.08
2022-12-08T05:45:40.770Z,28.23
2022-12-08T05:50:33.089Z,29.48
2022-12-08T05:52:59.769Z,27.45
2022-12-08T05:55:26.384Z,27.20
2022-12-08T05:57:53.114Z,29.88
2022-12-08T06:00:20.386Z,28.77
2022-12-08T06:02:47.221Z,27.55
2022-12-08T06:12:30.798Z,24.55
2022-12-08T06:14:57.525Z,25.05
2022-12-08T06:17:24.175Z,23.08
2022-12-08T06:22:16.259Z,23.98
2022-12-08T06:24:42.849Z,24.95
2022-12-08T06:27:09.539Z,21.70
2022-12-08T06:29:36.211Z,20.67
2022-12-08T06:32:02.855Z,23.85
2022-12-08T06:34:29.533Z,17.48
2022-12-08T06:36:56.253Z,21.75
2022-12-08T06:39:22.861Z,20.00
2022-12-08T06:42:08.231Z,22.55
2022-12-08T06:44:34.989Z,25.35
2022-12-08T06:47:01.598Z,23.67
2022-12-08T06:49:28.251Z,26.23
2022-12-08T06:51:54.935Z,36.10
2022-12-08T06:54:21.510Z,31.52
2022-12-08T07:04:04.495Z,29.48
2022-12-08T07:06:31.237Z,28.52
2022-12-08T07:08:57.885Z,32.90
2022-12-08T07:18:43.062Z,17.90
2022-12-08T07:21:11.061Z,17.00
2022-12-08T07:23:37.829Z,17.98
2022-12-08T07:28:31.895Z,19.88
2022-12-08T07:30:58.737Z,16.83
2022-12-08T07:35:54.352Z,26.77
2022-12-08T07:38:21.071Z,28.15
2022-12-08T07:45:40.180Z,23.40
2022-12-08T07:50:32.568Z,26.83
2022-12-08T07:52:59.364Z,28.50
2022-12-08T07:55:26.054Z,26.77
2022-12-08T07:57:52.690Z,29.50
2022-12-08T08:02:45.433Z,28.25
2022-12-08T08:05:12.695Z,32.45
2022-12-08T08:10:06.893Z,26.20
2022-12-08T08:12:33.935Z,29.50
2022-12-08T08:15:01.163Z,30.90
2022-12-08T08:17:28.573Z,33.25
2022-12-08T08:19:55.468Z,30.00
2022-12-08T08:22:22.153Z,34.40
2022-12-08T08:24:48.826Z,30.70
2022-12-08T08:27:15.465Z,24.25
2022-12-08T08:29:42.105Z,22.27
2022-12-08T08:32:08.758Z,22.30
2022-12-08T08:34:35.364Z,21.23
2022-12-08T08:37:02.094Z,23.08
2022-12-08T08:39:30.269Z,24.38
2022-12-08T08:41:56.920Z,22.80
2022-12-08T08:44:23.782Z,19.50
2022-12-08T08:46:50.511Z,24.40
2022-12-08T08:49:17.244Z,25.27
2022-12-08T09:01:27.050Z,20.63
2022-12-08T09:03:54.178Z,22.60
2022-12-08T09:06:20.901Z,24.08
2022-12-08T09:08:47.910Z,23.35
2022-12-08T09:11:14.880Z,26.95
2022-12-08T09:13:41.963Z,34.65
2022-12-08T09:16:09.405Z,23.67
2022-12-08T09:18:36.020Z,31.15
2022-12-08T09:23:35.377Z,20.85
2022-12-08T09:26:05.109Z,21.25
2022-12-08T09:33:23.495Z,21.50
2022-12-08T09:35:50.209Z,22.65
2022-12-08T09:38:16.913Z,19.27
2022-12-08T09:40:50.320Z,20.00
2022-12-08T09:43:20.866Z,24.15
2022-12-08T09:45:48.102Z,24.60
2022-12-08T09:48:23.039Z,19.38
2022-12-08T09:50:49.800Z,19.65
2022-12-08T09:53:19.740Z,15.75
2022-12-08T09:56:04.063Z,19.67
2022-12-08T09:58:36.921Z,18.88
2022-12-08T10:01:03.624Z,15.77
2022-12-08T10:03:30.906Z,19.80
2022-12-08T10:08:40.574Z,17.88
2022-12-08T10:26:41.036Z,18.40
2022-12-08T10:29:12.029Z,15.93
2022-12-08T10:31:38.798Z,18.27
2022-12-08T10:39:28.363Z,17.83
2022-12-08T10:44:21.525Z,14.13
2022-12-08T10:46:48.221Z,20.33
2022-12-08T10:49:24.998Z,15.27
2022-12-08T10:59:29.285Z,13.13
2022-12-08T11:01:56.560Z,13.35
2022-12-08T11:04:35.703Z,12.60
2022-12-08T11:07:03.338Z,12.80
2022-12-08T11:09:46.908Z,17.58
2022-12-08T11:12:15.280Z,16.65
2022-12-08T11:14:44.705Z,15.65
2022-12-08T11:19:40.511Z,19.38
2022-12-08T11:22:26.000Z,20.13
2022-12-08T11:29:54.286Z,18.63
2022-12-08T11:32:21.385Z,19.77
2022-12-08T11:34:48.048Z,17.60
2022-12-08T11:37:28.657Z,16.45
2022-12-08T11:42:29.085Z,12.75
2022-12-08T11:47:31.352Z,10.85
2022-12-08T11:50:05.054Z,12.13
2022-12-08T11:52:36.693Z,10.88
2022-12-08T11:55:13.937Z,12.18
2022-12-08T11:57:40.677Z,14.07
2022-12-08T12:00:11.998Z,13.00
2022-12-08T12:05:11.030Z,12.80
2022-12-08T12:07:43.925Z,11.57
2022-12-08T12:10:11.002Z,20.63
2022-12-08T12:12:46.465Z,17.17
2022-12-08T12:15:28.257Z,15.52
2022-12-08T12:20:23.052Z,16.38
2022-12-08T12:22:52.412Z,16.33
2022-12-08T12:27:45.999Z,14.70
2022-12-08T12:30:24.515Z,13.07
2022-12-08T12:32:59.179Z,12.55
2022-12-08T12:35:32.074Z,11.85
2022-12-08T12:40:29.045Z,6.72
2022-12-08T12:42:55.664Z,8.30
2022-12-08T12:47:56.024Z,8.88
2022-12-08T12:50:32.333Z,9.50
2022-12-08T12:53:19.304Z,9.63
2022-12-08T12:55:46.060Z,9.60
2022-12-08T12:58:39.062Z,6.88
2022-12-08T13:11:00.971Z,4.72
2022-12-08T13:16:19.158Z,6.95
2022-12-08T13:18:50.692Z,5.70
2022-12-08T13:21:19.857Z,5.13
2022-12-08T13:23:46.747Z,4.13
2022-12-08T13:26:18.069Z,8.00
2022-12-08T13:31:50.441Z,5.15
2022-12-08T13:37:10.611Z,4.75
2022-12-08T14:01:18.644Z,4.00
2022-12-08T14:04:11.739Z,7.97
2022-12-08T14:06:36.710Z,3.80
2022-12-08T14:11:35.812Z,4.93
2022-12-08T14:14:04.385Z,5.10
2022-12-08T14:19:26.866Z,4.68
2022-12-08T14:24:23.154Z,8.20
2022-12-08T14:26:51.329Z,7.25
2022-12-08T14:29:38.712Z,4.75
2022-12-08T14:32:25.705Z,4.72
2022-12-08T14:34:56.850Z,5.47
2022-12-08T14:37:25.189Z,6.10
2022-12-08T14:39:52.357Z,6.38
2022-12-08T14:42:23.570Z,15.93
2022-12-08T14:44:55.867Z,15.68
2022-12-08T14:47:22.645Z,9.68
2022-12-08T14:54:43.013Z,138.55
2022-12-08T15:02:12.657Z,11.40
2022-12-08T15:04:40.251Z,12.90
2022-12-08T15:07:22.081Z,9.65
2022-12-08T15:09:50.207Z,7.15
2022-12-08T15:17:35.280Z,6.82
2022-12-08T15:20:02.996Z,10.23
2022-12-08T15:22:31.220Z,7.93
2022-12-08T15:27:24.340Z,29.98
2022-12-08T15:29:51.354Z,12.73
2022-12-08T15:32:19.748Z,10.45
2022-12-08T15:34:46.687Z,11.73
2022-12-08T15:37:20.069Z,13.88
2022-12-08T15:39:46.726Z,7.63
2022-12-08T15:42:13.732Z,11.52
2022-12-08T15:52:08.036Z,10.98
2022-12-08T15:57:19.266Z,11.25
2022-12-08T15:59:48.917Z,9.88
2022-12-08T16:02:20.906Z,10.65
2022-12-08T16:07:28.428Z,9.45
2022-12-08T16:09:56.172Z,30.75
2022-12-08T16:13:54.822Z,35.35
2022-12-08T16:18:17.346Z,28.13
2022-12-08T16:26:00.073Z,20.40
2022-12-08T16:28:52.943Z,15.75
2022-12-08T16:31:13.752Z,15.18
2022-12-08T16:33:42.090Z,18.00
2022-12-08T16:36:09.362Z,16.58
2022-12-08T16:38:36.298Z,17.95
2022-12-08T16:41:41.217Z,24.38
2022-12-08T16:44:07.942Z,24.25
2022-12-08T16:46:36.079Z,29.27
2022-12-08T16:49:03.033Z,36.47
2022-12-08T16:51:29.812Z,25.55
2022-12-08T16:53:57.172Z,22.95
2022-12-08T16:56:30.451Z,22.25
2022-12-08T16:58:59.159Z,17.20
2022-12-08T17:01:25.973Z,19.60
2022-12-08T17:04:22.459Z,20.20
2022-12-08T17:06:41.471Z,18.73
2022-12-08T17:09:08.131Z,23.92
2022-12-08T17:11:40.843Z,38.65
2022-12-08T17:16:35.210Z,32.33
2022-12-08T17:19:01.919Z,25.65
2022-12-08T17:23:54.007Z,77.43
2022-12-08T17:26:20.679Z,75.63
2022-12-08T17:29:02.750Z,49.88
2022-12-08T17:31:31.291Z,36.10
2022-12-08T17:34:02.053Z,36.83
2022-12-08T17:36:28.980Z,26.52
2022-12-08T17:38:56.376Z,24.60
2022-12-08T17:41:23.156Z,20.63
2022-12-08T17:43:49.857Z,19.90
2022-12-08T17:46:17.805Z,9.93
2022-12-08T17:51:10.355Z,6.00
2022-12-08T17:53:37.741Z,7.97
2022-12-08T17:56:04.593Z,6.30
2022-12-08T17:58:31.355Z,5.55
2022-12-08T18:00:58.121Z,6.97
2022-12-08T18:03:24.757Z,6.68
2022-12-08T18:05:51.414Z,7.45
2022-12-08T18:08:18.098Z,8.88
2022-12-08T18:10:44.762Z,6.47
2022-12-08T18:13:11.462Z,9.20
2022-12-08T18:15:39.462Z,8.55
2022-12-08T18:18:06.241Z,8.85
2022-12-08T18:20:32.872Z,8.80
2022-12-08T18:22:59.585Z,7.97
2022-12-08T18:27:51.722Z,8.65
2022-12-08T18:30:18.750Z,8.00
2022-12-08T18:32:45.847Z,9.70
2022-12-08T18:35:14.620Z,11.68
2022-12-08T18:37:43.071Z,8.02
2022-12-08T18:40:10.414Z,10.75
2022-12-08T18:42:37.166Z,17.42
2022-12-08T18:45:06.732Z,22.58
2022-12-08T18:47:34.942Z,19.58
2022-12-08T18:50:01.693Z,18.48
2022-12-08T18:52:32.217Z,21.90
2022-12-08T18:59:51.070Z,23.35
2022-12-08T19:02:18.603Z,12.15
2022-12-08T19:04:45.435Z,9.52
2022-12-08T19:07:12.896Z,7.35
2022-12-08T19:09:39.957Z,8.70
2022-12-08T19:12:07.154Z,52.63
2022-12-08T19:14:34.402Z,22.67
2022-12-08T19:17:01.044Z,42.40
2022-12-08T19:19:28.009Z,11.70
2022-12-08T19:21:54.710Z,12.30
2022-12-08T19:42:06.969Z,19.85
2022-12-08T19:44:52.214Z,18.00
2022-12-08T19:47:19.730Z,17.73
2022-12-08T19:49:46.820Z,21.15
2022-12-08T19:52:13.579Z,24.35
2022-12-08T19:57:06.183Z,27.33
2022-12-08T19:59:32.845Z,33.10
2022-12-08T20:04:26.477Z,29.23
2022-12-08T20:06:53.852Z,28.83
2022-12-08T20:09:21.107Z,30.75
2022-12-08T20:11:47.842Z,35.60
2022-12-08T20:14:14.539Z,39.67
2022-12-08T20:21:32.577Z,41.22
2022-12-08T20:23:59.241Z,47.97
2022-12-08T20:26:25.842Z,40.70
2022-12-08T20:28:52.618Z,36.67
2022-12-08T20:33:44.623Z,39.58
2022-12-08T20:36:13.426Z,34.83
2022-12-08T20:38:40.131Z,39.50
2022-12-08T20:41:08.542Z,39.22
2022-12-08T20:43:35.386Z,40.22
2022-12-08T20:46:08.937Z,34.17
2022-12-08T20:48:35.879Z,40.10
2022-12-08T20:51:02.672Z,34.65
2022-12-08T20:53:29.311Z,39.53
2022-12-08T20:55:56.147Z,38.47
2022-12-08T20:58:23.225Z,38.15
2022-12-08T21:00:50.201Z,39.42
2022-12-08T21:03:18.643Z,39.53
2022-12-08T21:08:17.785Z,40.75
2022-12-08T21:10:44.827Z,47.33
2022-12-08T21:13:13.932Z,41.95
2022-12-08T21:18:10.690Z,44.72
2022-12-08T21:20:39.915Z,37.70
2022-12-08T21:23:06.577Z,39.20
2022-12-08T21:30:24.339Z,42.83
2022-12-08T21:32:51.183Z,41.70
2022-12-08T21:35:18.332Z,49.80
2022-12-08T21:37:45.084Z,53.88
2022-12-08T21:42:46.418Z,58.33
2022-12-08T21:45:17.347Z,60.55
2022-12-08T21:47:44.678Z,66.05
2022-12-08T21:50:12.364Z,73.93
2022-12-08T21:52:40.143Z,69.22
2022-12-08T21:55:07.519Z,61.50
2022-12-08T21:57:34.637Z,61.90
2022-12-08T22:00:01.418Z,64.28
2022-12-08T22:02:28.149Z,66.63
2022-12-08T22:04:55.043Z,63.00
2022-12-08T22:07:22.182Z,68.50
2022-12-08T22:09:49.432Z,69.40
2022-12-08T22:14:43.432Z,58.90
2022-12-08T22:17:10.459Z,59.08
2022-12-08T22:19:37.481Z,55.33
2022-12-08T22:22:04.293Z,55.63
2022-12-08T22:24:31.442Z,53.38
2022-12-08T22:26:58.067Z,62.90
2022-12-08T22:29:25.000Z,52.63
2022-12-08T22:31:51.699Z,54.83
2022-12-08T22:39:11.066Z,64.80
2022-12-08T22:41:37.797Z,66.43
2022-12-08T22:44:07.628Z,82.78
2022-12-08T22:46:34.426Z,63.20
2022-12-08T22:53:52.182Z,59.45
2022-12-08T22:58:45.526Z,59.28
2022-12-08T23:06:17.066Z,73.95
2022-12-08T23:08:44.485Z,72.70
2022-12-08T23:11:11.260Z,85.20
2022-12-08T23:13:39.480Z,81.85
2022-12-08T23:18:35.230Z,71.30
2022-12-08T23:21:06.486Z,90.97
2022-12-08T23:23:33.292Z,82.05
2022-12-08T23:26:00.201Z,84.97
2022-12-08T23:28:27.131Z,80.22
2022-12-08T23:33:19.724Z,84.57
2022-12-08T23:38:20.305Z,73.72
2022-12-08T23:40:47.212Z,81.80
2022-12-08T23:43:13.904Z,85.28
2022-12-08T23:45:40.634Z,86.45
2022-12-08T23:48:07.324Z,81.13
2022-12-08T23:50:34.087Z,74.88
2022-12-08T23:53:00.739Z,81.13
2022-12-08T23:55:27.618Z,73.40
2022-12-08T23:57:54.396Z,68.82
